Time;durP1;ratioP1;P1;durP2;ratioP2;P2;SDS_P1;SDS_P2;PMS_P1;PMS_P2;Temp;Humidity;BMP_temperature;BMP_pressure;BME280_temperature;BME280_humidity;BME280_pressure;Samples;Min_cycle;Max_cycle;Signal;HPM_P1;HPM_P2
2020/12/12 00:00:58;;;;;;;98.05;44.20;;;6.00;93.90;;;;;;5092433;28;20028;-71
2020/12/12 00:03:25;;;;;;;98.28;43.72;;;5.90;94.30;;;;;;5092741;28;20049;-71
2020/12/12 00:05:50;;;;;;;96.03;43.22;;;6.00;93.90;;;;;;5094565;28;20108;-71
2020/12/12 00:08:16;;;;;;;116.13;48.78;;;5.90;93.80;;;;;;5092406;28;20118;-71
2020/12/12 00:10:42;;;;;;;111.05;46.63;;;6.00;94.10;;;;;;5093912;28;20073;-70
2020/12/12 00:13:08;;;;;;;120.05;46.83;;;5.90;94.20;;;;;;5092647;28;20058;-71
2020/12/12 00:15:37;;;;;;;101.75;42.65;;;6.00;94.00;;;;;;5092292;28;20036;-70
2020/12/12 00:18:03;;;;;;;116.82;43.63;;;6.00;93.40;;;;;;5092587;28;20460;-70
2020/12/12 00:20:30;;;;;;;117.40;43.22;;;5.90;93.90;;;;;;5092512;28;20161;-70
2020/12/12 00:22:55;;;;;;;108.40;40.72;;;5.90;93.90;;;;;;5093851;28;20020;-70
2020/12/12 00:25:21;;;;;;;107.80;40.92;;;5.90;93.80;;;;;;5093530;28;20024;-71
2020/12/12 00:27:47;;;;;;;107.47;40.13;;;6.00;93.90;;;;;;5093548;28;20129;-71
2020/12/12 00:30:13;;;;;;;102.80;39.42;;;5.90;94.20;;;;;;5094059;28;20574;-70
2020/12/12 00:32:38;;;;;;;111.70;39.55;;;6.00;93.70;;;;;;5098092;28;20031;-71
2020/12/12 00:35:05;;;;;;;123.30;40.78;;;6.00;94.10;;;;;;5096899;28;20028;-71
2020/12/12 00:37:31;;;;;;;121.57;42.38;;;5.90;94.00;;;;;;5097855;28;20030;-71
2020/12/12 00:39:56;;;;;;;109.63;40.22;;;5.90;94.20;;;;;;5097787;28;20427;-71
2020/12/12 00:42:22;;;;;;;141.00;45.38;;;6.00;94.00;;;;;;5097382;28;20382;-70
2020/12/12 00:44:48;;;;;;;133.75;45.15;;;6.00;94.30;;;;;;5096392;28;20032;-70
2020/12/12 00:47:14;;;;;;;141.00;45.08;;;5.90;94.40;;;;;;5098227;28;20486;-71
2020/12/12 00:49:40;;;;;;;116.47;42.75;;;5.90;94.20;;;;;;5097014;28;20363;-70
2020/12/12 00:52:05;;;;;;;118.60;42.58;;;6.00;94.30;;;;;;5096348;28;20034;-70
2020/12/12 00:54:34;;;;;;;115.50;43.22;;;6.00;94.30;;;;;;5097198;28;20478;-70
2020/12/12 00:57:00;;;;;;;128.13;45.08;;;5.90;94.30;;;;;;5095865;28;20387;-70
2020/12/12 00:59:26;;;;;;;124.00;42.80;;;5.90;94.40;;;;;;5097512;28;20020;-71
2020/12/12 01:01:51;;;;;;;108.15;41.10;;;5.90;94.40;;;;;;5097384;28;20497;-70
2020/12/12 01:04:17;;;;;;;104.70;41.22;;;5.90;94.20;;;;;;5095732;28;20112;-70
2020/12/12 01:06:46;;;;;;;120.57;47.78;;;5.90;94.10;;;;;;5095980;28;20134;-70
2020/12/12 01:09:12;;;;;;;117.93;49.03;;;5.90;94.20;;;;;;5097177;28;20020;-70
2020/12/12 01:11:37;;;;;;;103.55;41.72;;;5.90;94.20;;;;;;5095558;28;20047;-70
2020/12/12 01:14:03;;;;;;;87.25;37.05;;;5.90;94.10;;;;;;5097280;28;20028;-70
2020/12/12 01:16:29;;;;;;;97.38;40.47;;;5.90;93.80;;;;;;5095513;28;20036;-70
2020/12/12 01:18:55;;;;;;;106.25;41.95;;;5.90;94.00;;;;;;5095796;28;20032;-70
2020/12/12 01:21:21;;;;;;;129.25;49.72;;;5.90;94.20;;;;;;5096567;28;20030;-70
2020/12/12 01:23:47;;;;;;;113.68;45.33;;;5.90;94.20;;;;;;5095333;28;20718;-70
2020/12/12 01:26:13;;;;;;;119.43;48.10;;;5.90;94.30;;;;;;5097193;28;20028;-70
2020/12/12 01:28:40;;;;;;;109.13;43.53;;;5.90;94.20;;;;;;5096893;28;20107;-70
2020/12/12 01:31:05;;;;;;;107.28;44.20;;;5.90;94.20;;;;;;5096493;28;20055;-70
2020/12/12 01:33:31;;;;;;;106.07;44.30;;;5.90;94.20;;;;;;5096441;28;20372;-70
2020/12/12 01:35:57;;;;;;;107.25;43.60;;;5.90;94.10;;;;;;5096733;28;20028;-70
2020/12/12 01:38:23;;;;;;;104.30;42.22;;;5.90;94.10;;;;;;5095056;28;20028;-70
2020/12/12 01:40:53;;;;;;;102.18;41.90;;;5.90;94.00;;;;;;5095482;28;20447;-70
2020/12/12 01:43:19;;;;;;;108.75;42.47;;;5.90;94.20;;;;;;5095346;28;20055;-70
2020/12/12 01:45:45;;;;;;;96.75;41.38;;;5.90;94.50;;;;;;5096552;28;20035;-71
2020/12/12 01:48:10;;;;;;;87.55;38.75;;;5.80;94.30;;;;;;5096502;28;20024;-70
2020/12/12 01:50:37;;;;;;;96.45;41.03;;;5.90;94.00;;;;;;5095159;28;20024;-70
2020/12/12 01:53:03;;;;;;;107.50;43.88;;;5.90;94.10;;;;;;5096149;28;20452;-70
2020/12/12 01:55:30;;;;;;;101.13;42.97;;;6.00;94.00;;;;;;5095004;28;20123;-71
2020/12/12 01:57:56;;;;;;;95.40;41.45;;;5.90;94.40;;;;;;5096328;28;20028;-71
2020/12/12 02:00:23;;;;;;;91.07;39.78;;;6.00;93.90;;;;;;5095977;28;20467;-70
2020/12/12 02:02:53;;;;;;;96.75;40.83;;;5.90;94.00;;;;;;5095939;28;20035;-70
2020/12/12 02:05:39;;;;;;;103.32;41.83;;;6.00;94.20;;;;;;5096221;28;20024;-70
2020/12/12 02:08:18;;;;;;;122.30;54.53;;;6.00;94.30;;;;;;5095447;28;20416;-71
2020/12/12 02:10:46;;;;;;;105.28;45.38;;;6.00;94.10;;;;;;5094809;28;20034;-70
2020/12/12 02:13:13;;;;;;;106.10;42.80;;;6.00;94.00;;;;;;5095712;28;20455;-70
2020/12/12 02:15:39;;;;;;;104.60;42.90;;;6.00;94.00;;;;;;5094628;28;20032;-70
2020/12/12 02:18:20;;;;;;;90.97;39.17;;;6.00;94.00;;;;;;5095629;28;20527;-70
2020/12/12 02:20:54;;;;;;;96.65;39.75;;;6.00;94.00;;;;;;5095614;28;20024;-70
2020/12/12 02:23:20;;;;;;;97.00;39.78;;;6.00;94.10;;;;;;5096160;28;20028;-70
2020/12/12 02:25:47;;;;;;;105.47;40.85;;;6.00;94.10;;;;;;5095493;28;20020;-70
2020/12/12 02:28:16;;;;;;;97.13;41.47;;;6.00;94.10;;;;;;5095429;28;20020;-70
2020/12/12 02:30:42;;;;;;;100.60;39.53;;;6.00;94.10;;;;;;5094249;28;20071;-70
2020/12/12 02:33:08;;;;;;;98.25;39.58;;;6.00;94.10;;;;;;5094362;28;20459;-70
2020/12/12 02:35:33;;;;;;;90.47;38.20;;;6.00;94.00;;;;;;5094879;28;20032;-70
2020/12/12 02:37:59;;;;;;;101.45;39.13;;;5.90;94.10;;;;;;5094245;28;20047;-70
2020/12/12 02:40:25;;;;;;;95.72;38.67;;;5.90;94.20;;;;;;5095410;28;20024;-70
2020/12/12 02:42:51;;;;;;;91.55;39.42;;;5.90;94.30;;;;;;5095702;28;20400;-70
2020/12/12 02:45:20;;;;;;;90.18;38.72;;;5.90;94.40;;;;;;5094139;28;20082;-70
2020/12/12 02:47:46;;;;;;;90.68;38.97;;;5.90;94.20;;;;;;5095501;28;20034;-70
2020/12/12 02:50:14;;;;;;;91.47;40.10;;;5.90;94.40;;;;;;5095321;28;20107;-71
2020/12/12 02:52:42;;;;;;;83.55;36.30;;;5.80;94.30;;;;;;5095205;28;20016;-70
2020/12/12 02:55:10;;;;;;;92.25;37.95;;;5.80;94.40;;;;;;5094860;28;20397;-70
2020/12/12 02:57:37;;;;;;;87.85;38.40;;;5.80;94.40;;;;;;5095127;28;20107;-70
2020/12/12 03:00:11;;;;;;;88.15;38.38;;;5.80;94.50;;;;;;5095154;28;20024;-70
2020/12/12 03:02:37;;;;;;;88.72;37.55;;;5.80;94.40;;;;;;5095263;28;20024;-70
2020/12/12 03:05:07;;;;;;;87.45;39.20;;;5.80;94.40;;;;;;5094964;28;20035;-70
2020/12/12 03:07:34;;;;;;;96.03;39.40;;;5.80;94.50;;;;;;5095003;28;20024;-70
2020/12/12 03:10:04;;;;;;;84.70;36.08;;;5.80;94.60;;;;;;5093417;28;20051;-70
2020/12/12 03:12:34;;;;;;;79.93;36.72;;;5.80;94.60;;;;;;5094939;28;20104;-70
2020/12/12 03:15:00;;;;;;;85.13;36.83;;;5.80;94.50;;;;;;5094879;28;20114;-70
2020/12/12 03:17:26;;;;;;;90.22;37.75;;;5.80;94.60;;;;;;5094533;28;20028;-70
2020/12/12 03:19:52;;;;;;;88.05;37.63;;;5.70;94.80;;;;;;5094736;28;20456;-70
2020/12/12 03:22:18;;;;;;;83.97;35.15;;;5.80;94.80;;;;;;5094446;28;20024;-70
2020/12/12 03:24:44;;;;;;;80.65;34.95;;;5.80;94.60;;;;;;5093080;28;20028;-70
2020/12/12 03:27:10;;;;;;;79.88;34.13;;;5.80;94.50;;;;;;5094878;28;20035;-70
2020/12/12 03:29:37;;;;;;;71.28;32.45;;;5.80;94.40;;;;;;5093958;28;20032;-71
2020/12/12 03:32:12;;;;;;;76.68;33.08;;;5.80;94.20;;;;;;5094618;28;20074;-70
2020/12/12 03:34:39;;;;;;;77.80;34.85;;;5.80;94.20;;;;;;5093212;28;20422;-71
2020/12/12 03:37:07;;;;;;;83.47;35.97;;;5.80;94.50;;;;;;5092914;28;20078;-71
2020/12/12 03:39:33;;;;;;;78.05;33.75;;;5.70;94.60;;;;;;5094107;28;20024;-71
2020/12/12 03:41:59;;;;;;;161.57;75.53;;;5.70;94.60;;;;;;5094396;28;20077;-70
2020/12/12 03:44:25;;;;;;;267.52;125.70;;;5.70;94.80;;;;;;5093752;28;20028;-71
2020/12/12 03:46:50;;;;;;;102.55;43.47;;;5.70;94.70;;;;;;5094589;28;20349;-71
2020/12/12 03:49:17;;;;;;;76.97;34.33;;;5.80;94.50;;;;;;5094820;28;20028;-70
2020/12/12 03:51:43;;;;;;;78.90;34.97;;;5.70;94.20;;;;;;5094096;28;20039;-70
2020/12/12 03:54:08;;;;;;;78.05;35.42;;;5.80;94.30;;;;;;5094389;28;20028;-70
2020/12/12 03:56:34;;;;;;;84.43;35.60;;;5.80;94.20;;;;;;5094144;28;20032;-71
2020/12/12 03:59:00;;;;;;;75.35;33.00;;;5.90;94.20;;;;;;5094163;28;20028;-70
2020/12/12 04:01:25;;;;;;;71.57;31.58;;;5.90;94.10;;;;;;5093884;28;20057;-71
2020/12/12 04:03:51;;;;;;;71.43;33.35;;;5.90;94.10;;;;;;5093380;28;20356;-71
2020/12/12 04:06:17;;;;;;;69.85;31.80;;;5.90;94.10;;;;;;5092073;28;20376;-71
2020/12/12 04:08:43;;;;;;;74.30;32.47;;;5.90;94.10;;;;;;5093733;28;20024;-71
2020/12/12 04:11:08;;;;;;;68.28;31.17;;;5.90;94.10;;;;;;5092765;28;20028;-71
2020/12/12 04:13:34;;;;;;;69.88;32.25;;;5.90;94.10;;;;;;5092350;28;20532;-71
2020/12/12 04:16:00;;;;;;;70.53;31.38;;;5.90;94.10;;;;;;5093620;28;20024;-71
2020/12/12 04:18:26;;;;;;;74.13;32.60;;;5.90;94.10;;;;;;5092362;28;20024;-71
2020/12/12 04:20:51;;;;;;;71.65;32.97;;;5.90;94.20;;;;;;5093613;28;20030;-71
2020/12/12 04:23:17;;;;;;;71.88;32.13;;;5.90;94.20;;;;;;5092566;28;20460;-71
2020/12/12 04:25:43;;;;;;;62.90;30.70;;;6.00;94.20;;;;;;5092207;28;20028;-71
2020/12/12 04:28:08;;;;;;;72.07;31.95;;;6.00;93.90;;;;;;5093541;28;20032;-71
2020/12/12 04:30:34;;;;;;;79.72;34.83;;;5.90;94.20;;;;;;5093718;28;20527;-71
2020/12/12 04:33:00;;;;;;;76.50;34.03;;;5.90;94.20;;;;;;5093471;28;20028;-71
2020/12/12 04:35:26;;;;;;;78.57;34.55;;;5.90;94.10;;;;;;5092430;28;20032;-71
2020/12/12 04:37:51;;;;;;;76.55;33.17;;;5.90;94.10;;;;;;5093754;28;20032;-71
2020/12/12 04:40:17;;;;;;;71.57;32.85;;;5.90;94.40;;;;;;5092401;28;20039;-71
2020/12/12 04:42:45;;;;;;;74.10;34.13;;;5.90;94.10;;;;;;5092406;28;20020;-71
2020/12/12 04:45:11;;;;;;;74.38;33.38;;;5.90;94.10;;;;;;5093659;28;20020;-71
2020/12/12 04:47:43;;;;;;;80.75;34.58;;;5.90;94.20;;;;;;5092308;28;20057;-71
2020/12/12 04:50:10;;;;;;;82.00;35.33;;;5.90;94.30;;;;;;5093378;28;20487;-71
2020/12/12 04:52:41;;;;;;;82.68;35.85;;;5.90;94.30;;;;;;5093316;28;20460;-71
2020/12/12 04:55:06;;;;;;;76.40;34.75;;;5.90;94.30;;;;;;5093330;28;20066;-71
2020/12/12 04:57:37;;;;;;;80.35;35.42;;;5.90;94.40;;;;;;5091944;28;20052;-71
2020/12/12 05:00:10;;;;;;;79.45;34.88;;;5.90;94.30;;;;;;5093807;28;20552;-71
2020/12/12 05:02:36;;;;;;;79.90;34.92;;;5.90;94.10;;;;;;5092921;28;20028;-71
2020/12/12 05:05:03;;;;;;;76.10;34.35;;;5.90;94.20;;;;;;5092207;28;20119;-71
2020/12/12 05:07:29;;;;;;;77.80;34.63;;;5.90;94.30;;;;;;5091923;28;20142;-71
2020/12/12 05:09:55;;;;;;;70.97;33.28;;;5.90;94.20;;;;;;5093767;28;20180;-71
2020/12/12 05:12:21;;;;;;;74.82;32.20;;;5.90;94.10;;;;;;5092120;28;20479;-71
2020/12/12 05:14:51;;;;;;;74.18;31.98;;;5.90;94.20;;;;;;5093047;28;20032;-71
2020/12/12 05:17:19;;;;;;;76.40;32.80;;;5.90;93.90;;;;;;5095328;28;20110;-71
2020/12/12 05:19:49;;;;;;;75.43;32.90;;;5.90;94.30;;;;;;5095805;28;20055;-71
2020/12/12 05:22:16;;;;;;;76.20;32.10;;;5.90;94.20;;;;;;5096797;28;20031;-71
2020/12/12 05:24:44;;;;;;;74.13;31.98;;;6.00;94.30;;;;;;5095711;28;20039;-71
2020/12/12 05:27:10;;;;;;;73.18;33.03;;;5.90;94.40;;;;;;5095655;28;20387;-71
2020/12/12 05:29:36;;;;;;;69.97;32.42;;;5.90;94.30;;;;;;5095104;28;20031;-71
2020/12/12 05:32:03;;;;;;;77.93;34.95;;;5.90;94.20;;;;;;5096382;28;20398;-71
2020/12/12 05:34:29;;;;;;;79.00;33.40;;;5.90;94.30;;;;;;5095431;28;20531;-71
2020/12/12 05:36:55;;;;;;;75.38;32.28;;;5.90;94.20;;;;;;5095248;28;20120;-70
2020/12/12 05:39:21;;;;;;;75.05;32.53;;;5.90;94.10;;;;;;5096579;28;20031;-70
2020/12/12 05:41:48;;;;;;;77.00;33.88;;;5.90;94.10;;;;;;5096651;28;20024;-70
2020/12/12 05:44:18;;;;;;;75.45;33.53;;;5.90;94.20;;;;;;5095068;28;20098;-71
2020/12/12 05:46:45;;;;;;;66.20;31.48;;;5.90;94.10;;;;;;5095802;28;20456;-70
2020/12/12 05:49:11;;;;;;;79.45;32.40;;;5.90;93.90;;;;;;5095249;28;20024;-71
2020/12/12 05:51:39;;;;;;;78.88;33.83;;;5.90;94.10;;;;;;5094952;28;20024;-70
2020/12/12 05:54:04;;;;;;;80.13;35.25;;;5.90;94.00;;;;;;5095062;28;20028;-70
2020/12/12 05:56:31;;;;;;;75.72;33.72;;;5.90;94.40;;;;;;5094818;28;20392;-71
2020/12/12 05:58:58;;;;;;;86.75;34.85;;;5.90;94.20;;;;;;5096033;28;20024;-71
2020/12/12 06:01:26;;;;;;;76.43;34.47;;;5.90;94.60;;;;;;5094978;28;20115;-71
2020/12/12 06:04:04;;;;;;;72.57;33.47;;;6.00;94.20;;;;;;5095573;28;20099;-71
2020/12/12 06:06:30;;;;;;;76.10;33.92;;;6.00;94.10;;;;;;5096465;28;20084;-71
2020/12/12 06:09:08;;;;;;;72.70;33.55;;;5.90;94.30;;;;;;5096103;28;20461;-71
2020/12/12 06:11:39;;;;;;;85.65;37.85;;;5.90;94.30;;;;;;5096064;28;20069;-71
2020/12/12 06:14:09;;;;;;;80.88;35.05;;;5.90;94.50;;;;;;5094680;28;20031;-70
2020/12/12 06:16:36;;;;;;;84.97;36.90;;;5.90;94.20;;;;;;5095974;28;20028;-70
2020/12/12 06:19:12;;;;;;;98.15;38.75;;;5.90;94.40;;;;;;5094367;28;20024;-71
2020/12/12 06:21:43;;;;;;;95.90;39.30;;;5.90;94.60;;;;;;5095977;28;20034;-71
2020/12/12 06:24:14;;;;;;;108.53;40.00;;;5.90;94.50;;;;;;5096252;28;20360;-70
2020/12/12 06:26:46;;;;;;;112.93;43.25;;;5.90;94.40;;;;;;5093902;28;20644;-70
2020/12/12 06:29:15;;;;;;;204.95;83.00;;;5.90;94.40;;;;;;5093926;28;20028;-71
2020/12/12 06:31:42;;;;;;;228.77;95.32;;;5.90;94.30;;;;;;5094035;28;20044;-70
2020/12/12 06:34:08;;;;;;;156.85;64.55;;;5.90;94.60;;;;;;5094313;28;20028;-70
2020/12/12 06:36:35;;;;;;;137.15;56.33;;;5.90;94.50;;;;;;5094318;28;20120;-71
2020/12/12 06:39:20;;;;;;;123.13;50.22;;;5.90;94.40;;;;;;5094979;28;20490;-71
2020/12/12 06:41:53;;;;;;;;;;;5.90;94.30;;;;;;5095631;28;20024;-71
2020/12/12 06:44:33;;;;;;;123.20;46.10;;;5.90;94.60;;;;;;5094129;28;19940;-70
2020/12/12 06:46:59;;;;;;;123.72;42.25;;;5.90;94.50;;;;;;5093812;28;20436;-70
2020/12/12 06:49:25;;;;;;;122.93;42.00;;;5.90;94.80;;;;;;5095312;28;20024;-70
2020/12/12 06:51:51;;;;;;;113.28;42.33;;;5.90;94.60;;;;;;5094570;28;20111;-70
2020/12/12 06:54:18;;;;;;;120.35;38.60;;;5.90;94.70;;;;;;5093584;28;20040;-69
2020/12/12 06:56:44;;;;;;;102.90;37.90;;;5.90;94.70;;;;;;5095461;28;20036;-71
2020/12/12 06:59:28;;;;;;;133.73;42.25;;;5.90;94.50;;;;;;5094859;28;20085;-70
2020/12/12 07:01:59;;;;;;;116.77;40.23;;;5.90;95.00;;;;;;5093835;28;20115;-70
2020/12/12 07:04:27;;;;;;;109.28;38.70;;;5.90;94.90;;;;;;5095106;28;20302;-70
2020/12/12 07:06:58;;;;;;;115.90;39.45;;;5.90;94.70;;;;;;5094925;28;20027;-70
2020/12/12 07:09:27;;;;;;;121.65;40.47;;;6.00;94.70;;;;;;5093668;28;20136;-69
2020/12/12 07:11:57;;;;;;;112.82;39.78;;;5.90;94.70;;;;;;5094850;28;20459;-70
2020/12/12 07:14:24;;;;;;;121.57;42.78;;;5.90;94.90;;;;;;5094725;28;20475;-69
2020/12/12 07:16:58;;;;;;;126.50;45.63;;;5.90;94.90;;;;;;5094764;28;20032;-70
2020/12/12 07:19:34;;;;;;;121.93;43.55;;;5.90;95.10;;;;;;5094812;28;20028;-69
2020/12/12 07:22:01;;;;;;;120.03;42.40;;;6.00;95.00;;;;;;5094385;28;20032;-70
2020/12/12 07:24:28;;;;;;;135.23;46.90;;;6.00;94.90;;;;;;5094962;28;20106;-70
2020/12/12 07:26:54;;;;;;;118.60;44.72;;;6.00;95.00;;;;;;5094695;28;20442;-69
2020/12/12 07:29:20;;;;;;;150.18;51.10;;;6.00;94.60;;;;;;5094244;28;20368;-70
2020/12/12 07:31:46;;;;;;;118.90;44.03;;;6.00;94.90;;;;;;5094227;28;20040;-70
2020/12/12 07:34:17;;;;;;;106.57;40.65;;;6.00;94.60;;;;;;5093339;28;20088;-70
2020/12/12 07:36:43;;;;;;;123.57;46.60;;;6.00;94.80;;;;;;5094228;28;20034;-70
2020/12/12 07:39:10;;;;;;;100.45;38.70;;;6.10;94.70;;;;;;5093944;28;20103;-70
2020/12/12 07:41:45;;;;;;;101.70;37.85;;;6.10;94.60;;;;;;5092795;28;20460;-70
2020/12/12 07:44:12;;;;;;;109.30;38.97;;;6.10;94.40;;;;;;5094100;28;20548;-70
2020/12/12 07:46:52;;;;;;;108.47;38.75;;;6.10;94.80;;;;;;5094234;28;20368;-69
2020/12/12 07:49:18;;;;;;;102.82;39.38;;;6.10;94.70;;;;;;5094447;28;20039;-69
2020/12/12 07:51:44;;;;;;;105.72;39.70;;;6.10;94.80;;;;;;5094230;28;20017;-70
2020/12/12 07:54:20;;;;;;;108.97;39.20;;;6.10;94.80;;;;;;5092774;28;20032;-70
2020/12/12 07:56:53;;;;;;;103.25;36.45;;;6.10;94.60;;;;;;5092870;28;20429;-69
2020/12/12 07:59:20;;;;;;;112.88;41.67;;;6.10;94.80;;;;;;5094072;28;20019;-70
2020/12/12 08:01:50;;;;;;;99.20;39.00;;;6.10;95.20;;;;;;5092869;28;20024;-70
2020/12/12 08:04:21;;;;;;;97.35;38.65;;;6.10;94.80;;;;;;5093805;28;20023;-69
2020/12/12 08:06:46;;;;;;;97.78;38.38;;;6.10;94.50;;;;;;5094033;28;20456;-71
2020/12/12 08:09:20;;;;;;;116.30;43.65;;;6.10;94.80;;;;;;5094282;28;20107;-70
2020/12/12 08:11:55;;;;;;;125.18;48.25;;;6.20;94.80;;;;;;5093609;28;20097;-71
2020/12/12 08:14:21;;;;;;;111.75;44.90;;;6.20;94.90;;;;;;5093949;28;20356;-70
2020/12/12 08:16:52;;;;;;;150.80;54.28;;;6.10;94.80;;;;;;5092343;28;20028;-69
2020/12/12 08:19:18;;;;;;;149.70;55.22;;;6.20;94.80;;;;;;5093707;28;20020;-69
2020/12/12 08:21:48;;;;;;;112.15;45.78;;;6.20;94.70;;;;;;5093589;28;20122;-70
2020/12/12 08:24:14;;;;;;;93.97;39.38;;;6.20;94.50;;;;;;5091229;28;20028;-70
2020/12/12 08:26:40;;;;;;;97.28;38.00;;;6.30;94.70;;;;;;5092561;28;20034;-71
2020/12/12 08:29:06;;;;;;;93.63;40.05;;;6.20;94.50;;;;;;5093035;28;20024;-71
2020/12/12 08:31:37;;;;;;;117.85;51.42;;;6.30;94.50;;;;;;5091961;28;20052;-71
2020/12/12 08:34:03;;;;;;;116.22;53.72;;;6.30;94.40;;;;;;5092429;28;20032;-72
2020/12/12 08:36:32;;;;;;;89.03;42.75;;;6.30;94.30;;;;;;5092513;28;20173;-71
2020/12/12 08:39:17;;;;;;;85.85;38.20;;;6.40;94.20;;;;;;5093402;28;20046;-71
2020/12/12 08:41:43;;;;;;;74.55;35.40;;;6.30;94.30;;;;;;5094031;28;20045;-72
2020/12/12 08:44:23;;;;;;;74.28;35.45;;;6.30;94.20;;;;;;5092419;28;20119;-71
2020/12/12 08:46:53;;;;;;;70.80;33.47;;;6.30;94.20;;;;;;5092359;28;20138;-71
2020/12/12 08:49:19;;;;;;;73.65;34.78;;;6.40;94.10;;;;;;5092213;28;20031;-71
2020/12/12 08:51:51;;;;;;;73.85;33.72;;;6.40;94.10;;;;;;5094593;28;20472;-71
2020/12/12 08:54:17;;;;;;;75.35;34.55;;;6.40;94.10;;;;;;5096307;28;20109;-74
2020/12/12 08:56:43;;;;;;;132.63;68.47;;;6.50;94.20;;;;;;5097855;28;20062;-72
2020/12/12 08:59:18;;;;;;;151.02;76.70;;;6.50;94.00;;;;;;5096929;28;20225;-72
2020/12/12 09:01:44;;;;;;;170.80;82.13;;;6.50;94.20;;;;;;5097471;28;20020;-72
2020/12/12 09:04:12;;;;;;;100.00;49.50;;;6.50;93.90;;;;;;5097392;28;20081;-73
2020/12/12 09:06:54;;;;;;;93.60;49.42;;;6.50;93.80;;;;;;5096772;28;20070;-75
2020/12/12 09:09:23;;;;;;;85.78;43.58;;;6.50;93.90;;;;;;5096078;28;20035;-71
2020/12/12 09:12:02;;;;;;;80.40;42.22;;;6.60;94.00;;;;;;5095948;28;20468;-72
2020/12/12 09:14:31;;;;;;;82.72;40.05;;;6.60;93.80;;;;;;5096780;28;20028;-72
2020/12/12 09:16:59;;;;;;;81.28;44.00;;;6.60;93.80;;;;;;5095787;28;20372;-71
2020/12/12 09:19:27;;;;;;;77.43;42.28;;;6.60;93.80;;;;;;5096803;28;20459;-72
2020/12/12 09:21:54;;;;;;;73.05;37.17;;;6.60;93.70;;;;;;5095801;28;20055;-71
2020/12/12 09:24:23;;;;;;;72.50;39.15;;;6.70;93.50;;;;;;5097242;28;20060;-71
2020/12/12 09:26:52;;;;;;;90.70;49.42;;;6.70;93.70;;;;;;5096061;28;20039;-72
2020/12/12 09:29:18;;;;;;;93.45;51.30;;;6.70;93.30;;;;;;5096961;28;20032;-73
2020/12/12 09:31:44;;;;;;;92.72;47.40;;;6.70;93.60;;;;;;5095572;28;20052;-74
2020/12/12 09:34:09;;;;;;;78.10;41.45;;;6.70;93.70;;;;;;5095069;28;20475;-73
2020/12/12 09:36:35;;;;;;;69.97;35.40;;;6.70;93.50;;;;;;5095561;28;20035;-72
2020/12/12 09:39:02;;;;;;;67.40;35.72;;;6.80;93.50;;;;;;5095474;28;20028;-73
2020/12/12 09:41:27;;;;;;;61.80;31.55;;;6.80;93.40;;;;;;5095115;28;20447;-73
2020/12/12 09:43:53;;;;;;;90.05;46.22;;;6.80;93.20;;;;;;5095407;28;20116;-72
2020/12/12 09:46:19;;;;;;;128.00;59.88;;;6.80;93.10;;;;;;5096892;28;20024;-71
2020/12/12 09:48:46;;;;;;;71.55;35.33;;;6.80;93.30;;;;;;5094956;28;20031;-72
2020/12/12 09:51:14;;;;;;;68.30;35.50;;;6.70;93.10;;;;;;5095182;28;20024;-72
2020/12/12 09:53:43;;;;;;;67.22;35.45;;;6.70;93.40;;;;;;5096471;28;20031;-72
2020/12/12 09:56:12;;;;;;;71.68;34.33;;;6.70;93.30;;;;;;5094850;28;20152;-72
2020/12/12 09:58:38;;;;;;;69.32;37.47;;;6.60;93.30;;;;;;5096919;28;20020;-71
2020/12/12 10:01:05;;;;;;;71.28;36.58;;;6.60;93.50;;;;;;5096291;28;20031;-72
2020/12/12 10:03:31;;;;;;;76.75;41.97;;;6.60;93.50;;;;;;5095626;28;20112;-73
2020/12/12 10:05:57;;;;;;;67.03;34.80;;;6.60;93.60;;;;;;5095980;28;20491;-72
2020/12/12 10:08:23;;;;;;;91.43;45.53;;;6.60;93.30;;;;;;5094617;28;20050;-72
2020/12/12 10:10:49;;;;;;;73.75;38.08;;;6.60;93.60;;;;;;5094812;28;20032;-71
2020/12/12 10:13:15;;;;;;;78.43;39.20;;;6.60;93.60;;;;;;5095839;28;20028;-71
2020/12/12 10:15:40;;;;;;;71.30;37.72;;;6.60;93.30;;;;;;5094973;28;20640;-72
2020/12/12 10:18:10;;;;;;;76.47;37.72;;;6.60;93.40;;;;;;5096040;28;20119;-71
2020/12/12 10:20:37;;;;;;;63.38;34.17;;;6.70;93.20;;;;;;5094586;28;20459;-71
2020/12/12 10:23:04;;;;;;;72.53;37.33;;;6.70;93.30;;;;;;5094270;28;20051;-71
2020/12/12 10:25:30;;;;;;;73.53;38.30;;;6.70;93.20;;;;;;5094581;28;20042;-71
2020/12/12 10:27:56;;;;;;;157.00;109.38;;;6.70;93.30;;;;;;5094522;28;20032;-71
2020/12/12 10:30:23;;;;;;;156.40;112.97;;;6.70;93.10;;;;;;5095340;28;20048;-71
2020/12/12 10:32:49;;;;;;;127.03;88.47;;;6.70;93.10;;;;;;5094461;28;20124;-71
2020/12/12 10:35:15;;;;;;;103.07;58.55;;;6.70;93.00;;;;;;5095318;28;20073;-71
2020/12/12 10:37:41;;;;;;;86.95;49.53;;;6.70;93.00;;;;;;5094048;28;20028;-71
2020/12/12 10:40:21;;;;;;;81.25;42.30;;;6.70;93.10;;;;;;5095578;28;20103;-72
2020/12/12 10:42:47;;;;;;;79.28;42.35;;;6.70;92.90;;;;;;5094591;28;20048;-71
2020/12/12 10:45:13;;;;;;;97.65;51.97;;;6.80;93.10;;;;;;5094886;28;20507;-71
2020/12/12 10:47:39;;;;;;;75.35;42.88;;;6.80;92.90;;;;;;5094966;28;20451;-72
2020/12/12 10:50:07;;;;;;;74.00;41.00;;;6.80;92.90;;;;;;5094078;28;20027;-71
2020/12/12 10:52:34;;;;;;;88.47;55.42;;;6.80;92.80;;;;;;5094884;28;20024;-71
2020/12/12 10:55:00;;;;;;;109.72;53.15;;;6.70;92.90;;;;;;5094849;28;20441;-71
2020/12/12 10:57:26;;;;;;;129.18;63.10;;;6.60;93.60;;;;;;5094635;28;20035;-71
2020/12/12 10:59:52;;;;;;;149.38;70.88;;;6.70;93.60;;;;;;5093812;28;20027;-71
2020/12/12 11:02:17;;;;;;;103.30;47.92;;;6.60;93.60;;;;;;5095086;28;20048;-71
2020/12/12 11:04:43;;;;;;;116.45;54.95;;;6.70;93.50;;;;;;5093443;28;20032;-71
2020/12/12 11:07:12;;;;;;;92.25;46.05;;;6.70;93.50;;;;;;5094036;28;20035;-71
2020/12/12 11:09:39;;;;;;;115.68;51.42;;;6.60;93.30;;;;;;5093681;28;20030;-72
2020/12/12 11:12:05;;;;;;;97.57;47.83;;;6.60;93.60;;;;;;5093210;28;20028;-71
2020/12/12 11:14:33;;;;;;;126.72;59.00;;;6.60;93.70;;;;;;5093962;28;20043;-71
2020/12/12 11:17:00;;;;;;;132.70;69.93;;;6.60;93.80;;;;;;5095069;28;20032;-71
2020/12/12 11:19:26;;;;;;;302.20;157.65;;;6.60;93.60;;;;;;5094429;28;20032;-70
2020/12/12 11:21:53;;;;;;;95.53;43.03;;;6.70;93.40;;;;;;5094459;28;20361;-71
2020/12/12 11:24:19;;;;;;;141.80;69.07;;;6.70;93.10;;;;;;5094699;28;20348;-70
2020/12/12 11:26:45;;;;;;;142.80;65.57;;;6.70;93.50;;;;;;5091410;28;20032;-71
2020/12/12 11:29:12;;;;;;;264.77;133.00;;;6.80;93.10;;;;;;5092714;28;20027;-71
2020/12/12 11:31:41;;;;;;;136.05;61.25;;;6.80;93.30;;;;;;5094966;28;20040;-70
2020/12/12 11:41:59;;;;;;;116.78;51.88;;;6.80;93.00;;;;;;5094114;28;20161;-70
2020/12/12 11:46:51;;;;;;;105.63;47.33;;;6.90;92.90;;;;;;5094055;28;20035;-70
2020/12/12 11:49:18;;;;;;;84.30;42.42;;;7.00;93.00;;;;;;5094296;28;20020;-71
2020/12/12 11:51:44;;;;;;;97.53;50.85;;;7.00;92.20;;;;;;5094230;28;20365;-70
2020/12/12 11:54:10;;;;;;;128.40;66.47;;;7.00;92.30;;;;;;5093828;28;20028;-71
2020/12/12 11:56:36;;;;;;;101.28;47.53;;;7.10;92.50;;;;;;5094225;28;20032;-72
2020/12/12 11:59:02;;;;;;;85.35;41.38;;;7.20;92.50;;;;;;5094169;28;20024;-70
2020/12/12 12:01:28;;;;;;;86.97;42.70;;;7.20;92.30;;;;;;5092575;28;20123;-71
2020/12/12 12:03:56;;;;;;;138.43;63.72;;;7.20;92.10;;;;;;5092807;28;20020;-70
2020/12/12 12:06:22;;;;;;;121.72;61.05;;;7.20;92.30;;;;;;5092771;28;20077;-70
2020/12/12 12:09:36;;;;;;;101.22;50.53;;;7.30;92.10;;;;;;5093591;28;20024;-71
2020/12/12 12:11:36;;;;;;;103.45;54.33;;;7.20;92.10;;;;;;5089871;28;20361;-71
2020/12/12 12:14:07;;;;;;;102.28;50.88;;;7.20;92.20;;;;;;5093640;28;20032;-71
2020/12/12 12:16:36;;;;;;;111.35;54.92;;;7.30;91.80;;;;;;5093753;28;20107;-71
2020/12/12 12:19:07;;;;;;;115.45;61.35;;;7.30;92.00;;;;;;5093650;28;20065;-71
2020/12/12 12:21:34;;;;;;;113.32;56.88;;;7.30;92.20;;;;;;5093613;28;20028;-70
2020/12/12 12:24:05;;;;;;;109.25;54.72;;;7.30;91.90;;;;;;5093886;28;20024;-72
2020/12/12 12:26:34;;;;;;;116.35;59.92;;;7.40;92.00;;;;;;5095837;28;20368;-70
2020/12/12 12:29:02;;;;;;;108.43;57.20;;;7.40;92.20;;;;;;5096522;28;20430;-70
2020/12/12 12:31:28;;;;;;;97.63;53.50;;;7.40;92.10;;;;;;5096771;28;20503;-71
2020/12/12 12:33:53;;;;;;;98.95;53.28;;;7.50;92.10;;;;;;5097230;28;20024;-71
2020/12/12 12:36:23;;;;;;;96.40;49.70;;;7.50;91.60;;;;;;5097677;28;20090;-70
2020/12/12 12:38:49;;;;;;;129.60;67.13;;;7.50;91.70;;;;;;5096627;28;20113;-72
2020/12/12 12:41:15;;;;;;;151.00;70.43;;;7.50;92.30;;;;;;5096571;28;20024;-71
2020/12/12 12:43:41;;;;;;;171.00;77.85;;;7.40;92.00;;;;;;5097365;28;20456;-71
2020/12/12 12:46:08;;;;;;;486.48;301.17;;;7.40;92.20;;;;;;5097804;28;20024;-71